Terminal Aerodrome Forecast
Issued by NWS

Home | Current Version | Previous Version | Graphics & Text | Print | Product List | Glossary Off
Versions: 1 2 3 4 5 6 7 8 9 10 11 12 13

000
FTUS43 KOAX 230534
TAFCDR
TAF
KCDR 230534Z 2306/2406 30012KT P6SM OVC120
     FM230900 31015G25KT 6SM -SN BKN050 OVC100
     FM231600 31025G40KT P6SM BKN100 BKN200
     FM240100 30018G26KT P6SM BKN100 BKN200=

USA.gov is the U.S. government's official web portal to all federal, state and local government web resources and services.